Un Pendik — TCOD2 — position and weather

sailwx.info

Track history (hours):
 
Tides and Currents Weather Stations Pressure Air Temp Water Temp Dewpoint Dewpoint Depression Visibility Wind Speed Wind Dir Waves Ship Positions

Un Pendik

Last reported at 2018-Jun-17 03:41 UTC. Time now 2018-Jun-18 19:33 UTC.
Position N 44°05' E 014°04'.

Length 193 m; draft 6.6 m.

Type: Ship (hazmat cat A). MMSI: 271000792.

Date/timePositionNaut miles runAvg speedWind from/ knotsBaromVisibWave heightAir tempDewpointWater temp
2018-Jun-17 03:41N 44°05' E 014°04'1119.4
2018-Jun-17 03:07N 44°14' E 013°55'219.5
2018-Jun-17 03:00N 44°16' E 013°54'1319.6
2018-Jun-17 02:22N 44°27' E 013°44'720.0
2018-Jun-17 02:00N 44°33' E 013°39'1019.9
2018-Jun-17 01:30N 44°41' E 013°31'1019.8
2018-Jun-17 01:00N 44°49' E 013°24'1019.5
2018-Jun-17 00:30N 44°57' E 013°16'1019.3
2018-Jun-17 00:00N 45°05' E 013°09'1019.3
2018-Jun-16 23:30N 45°14' E 013°03'918.8
2018-Jun-16 23:00N 45°24' E 013°04'1019.4
2018-Jun-16 22:30N 45°30' E 013°15'1019.6
2018-Jun-16 22:00N 45°35' E 013°26'1019.3
2018-Jun-16 21:30N 45°39' E 013°39'4 7.7
2018-Jun-16 20:58N 45°39' E 013°45'0 0.0
2018-Jun-16 20:28N 45°39' E 013°45'0 0.0
2018-Jun-16 19:58N 45°39' E 013°45'0 0.0
2018-Jun-16 19:30N 45°39' E 013°45'0 0.0
2018-Jun-16 18:57N 45°39' E 013°45'0 0.0
2018-Jun-16 18:30N 45°39' E 013°45'0 0.0
2018-Jun-16 17:51N 45°39' E 013°45'0 0.0
2018-Jun-16 17:30N 45°39' E 013°45'0 0.0
2018-Jun-16 16:59N 45°39' E 013°45'0 0.0
2018-Jun-16 16:29N 45°39' E 013°45'0 0.0
2018-Jun-16 15:59N 45°39' E 013°45'0 0.0
2018-Jun-16 15:23N 45°39' E 013°45'0 0.0
2018-Jun-16 14:55N 45°39' E 013°45'0 0.0
2018-Jun-16 14:28N 45°39' E 013°45'0 0.0
2018-Jun-16 13:55N 45°39' E 013°45'0 0.0
2018-Jun-16 13:25N 45°39' E 013°45'0 0.0
2018-Jun-16 12:58N 45°39' E 013°45'0 0.0
2018-Jun-16 12:27N 45°39' E 013°45'0 0.0
2018-Jun-16 11:57N 45°39' E 013°45'0 0.0
2018-Jun-16 11:30N 45°39' E 013°45'0 0.0
2018-Jun-16 11:00N 45°39' E 013°45'0 0.0
2018-Jun-16 10:30N 45°39' E 013°45'2 4.5
2018-Jun-16 10:00N 45°39' E 013°42'918.2
2018-Jun-16 09:30N 45°34' E 013°31'1019.5
2018-Jun-16 09:01N 45°28' E 013°20'1019.0
2018-Jun-16 08:30N 45°20' E 013°13'1020.3
2018-Jun-16 08:00N 45°10' E 013°17'1020.7
2018-Jun-16 07:31N 45°01' E 013°22'1020.5
2018-Jun-16 07:00N 44°51' E 013°29'1120.5
2018-Jun-16 06:30N 44°43' E 013°37'1020.1
2018-Jun-16 06:00N 44°34' E 013°44'1020.1
2018-Jun-16 05:30N 44°26' E 013°52'64019.3
2018-Jun-14 20:23N 36°25' E 023°06'2218.4
2018-Jun-14 19:12N 36°41' E 023°24'3019.5
2018-Jun-14 17:40N 37°06' E 023°45'319.5
2018-Jun-14 17:31N 37°08' E 023°47'1019.4
2018-Jun-14 17:01N 37°16' E 023°54'1019.7
2018-Jun-14 16:31N 37°24' E 024°01'15819.6
2018-Jun-14 08:27N 39°40' E 025°44'919.9
2018-Jun-14 08:00N 39°48' E 025°49'1020.8
2018-Jun-14 07:30N 39°57' E 025°56'4714.3
2018-Jun-14 04:12N 40°26' E 026°44'4420.6
2018-Jun-14 02:05N 40°45' E 027°36'220.7
2018-Jun-14 02:00N 40°46' E 027°38'1020.8
2018-Jun-14 01:30N 40°47' E 027°52'1120.7
2018-Jun-14 01:00N 40°49' E 028°05'1020.0
2018-Jun-14 00:30N 40°51' E 028°18'1019.9
2018-Jun-14 00:00N 40°52' E 028°31'1119.2
2018-Jun-13 23:27N 40°52' E 028°45'919.0
2018-Jun-13 23:00N 40°49' E 028°56'1019.1
2018-Jun-13 22:30N 40°49' E 029°09'110 2.6
2018-Jun-12 04:50N 40°26' E 026°47'60112.3
2018-Jun-10 04:07N 44°01' E 014°09'319.4
2018-Jun-10 03:57N 44°04' E 014°07'819.3
2018-Jun-10 03:31N 44°10' E 013°60'1019.4
2018-Jun-10 03:01N 44°19' E 013°52'1019.2
2018-Jun-10 02:31N 44°27' E 013°45'1019.1
2018-Jun-10 02:00N 44°35' E 013°38'1019.3
2018-Jun-10 01:31N 44°43' E 013°30'1019.5
2018-Jun-10 01:00N 44°51' E 013°23'1019.4
2018-Jun-10 00:31N 44°59' E 013°15'1019.6
2018-Jun-10 00:00N 45°07' E 013°07'919.2
2018-Jun-09 23:31N 45°16' E 013°02'816.3
2018-Jun-09 23:01N 45°24' E 013°04'1019.5
2018-Jun-09 22:31N 45°30' E 013°15'1019.3
2018-Jun-09 22:01N 45°35' E 013°26'1019.2
2018-Jun-09 21:31N 45°39' E 013°39'4 8.7
2018-Jun-09 21:00N 45°39' E 013°45'0 0.0
2018-Jun-09 20:25N 45°39' E 013°45'0 0.0
2018-Jun-09 19:55N 45°39' E 013°45'0 0.0
2018-Jun-09 19:28N 45°39' E 013°45'0 0.0
2018-Jun-09 18:57N 45°39' E 013°45'0 0.0
2018-Jun-09 18:15N 45°39' E 013°45'0 0.0
2018-Jun-09 18:00N 45°39' E 013°45'0 0.0
2018-Jun-09 17:27N 45°39' E 013°45'0 0.0
2018-Jun-09 17:00N 45°39' E 013°45'0 0.0
2018-Jun-09 16:23N 45°39' E 013°45'0 0.0
2018-Jun-09 15:59N 45°39' E 013°45'0 0.0
2018-Jun-09 14:59N 45°39' E 013°45'0 0.0
2018-Jun-09 14:29N 45°39' E 013°45'0 0.0
2018-Jun-09 13:59N 45°39' E 013°45'0 0.0
2018-Jun-09 13:29N 45°39' E 013°45'0 0.0
2018-Jun-09 12:57N 45°39' E 013°45'0 0.0
2018-Jun-09 12:25N 45°39' E 013°45'0 0.0
2018-Jun-09 11:52N 45°39' E 013°45'0 0.0
2018-Jun-09 11:25N 45°39' E 013°45'0 0.0
2018-Jun-09 10:55N 45°39' E 013°45'0 0.0
2018-Jun-09 10:30N 45°39' E 013°45'0 0.0
2018-Jun-09 10:00N 45°39' E 013°45'0 0.0
2018-Jun-09 09:30N 45°39' E 013°45'0 0.0
2018-Jun-09 09:00N 45°39' E 013°45'1 2.0
2018-Jun-09 08:30N 45°39' E 013°44'815.8
2018-Jun-09 08:00N 45°36' E 013°33'1019.2
2018-Jun-09 07:30N 45°30' E 013°23'919.0
2018-Jun-09 07:00N 45°23' E 013°14'1019.4
2018-Jun-09 06:30N 45°13' E 013°16'1019.9
2018-Jun-09 06:00N 45°04' E 013°21'1019.9
2018-Jun-09 05:30N 44°55' E 013°26'1019.8
2018-Jun-09 05:00N 44°46' E 013°34'1019.7
2018-Jun-09 04:30N 44°38' E 013°41'1019.5
2018-Jun-09 04:00N 44°30' E 013°49'1019.3
2018-Jun-09 03:30N 44°22' E 013°56'63519.2
2018-Jun-07 18:30N 36°25' E 023°06'1018.2
2018-Jun-07 17:57N 36°30' E 023°16'1819.8
2018-Jun-07 17:02N 36°46' E 023°28'119.8
2018-Jun-07 17:00N 36°46' E 023°28'1019.9
2018-Jun-07 16:30N 36°54' E 023°35'1019.8
2018-Jun-07 16:00N 37°03' E 023°42'1019.9
2018-Jun-07 15:30N 37°11' E 023°49'1020.3
2018-Jun-07 15:00N 37°19' E 023°56'1120.3
2018-Jun-07 14:28N 37°28' E 024°04'  
Track history (hours):
 
Tides and Currents Weather Stations Pressure Air Temp Water Temp Dewpoint Dewpoint Depression Visibility Wind Speed Wind Dir Waves Ship Positions

Un Pendik

Last reported at 2018-Jun-17 03:41 UTC. Time now 2018-Jun-18 19:33 UTC.
Position N 44°05' E 014°04'.

Length 193 m; draft 6.6 m.

Type: Ship (hazmat cat A). MMSI: 271000792.

Date/timePositionNaut miles runAvg speedWind from/ knotsBaromVisibWave heightAir tempDewpointWater temp
2018-Jun-17 03:41N 44°05' E 014°04'1119.4
2018-Jun-17 03:07N 44°14' E 013°55'219.5
2018-Jun-17 03:00N 44°16' E 013°54'1319.6
2018-Jun-17 02:22N 44°27' E 013°44'720.0
2018-Jun-17 02:00N 44°33' E 013°39'1019.9
2018-Jun-17 01:30N 44°41' E 013°31'1019.8
2018-Jun-17 01:00N 44°49' E 013°24'1019.5
2018-Jun-17 00:30N 44°57' E 013°16'1019.3
2018-Jun-17 00:00N 45°05' E 013°09'1019.3
2018-Jun-16 23:30N 45°14' E 013°03'918.8
2018-Jun-16 23:00N 45°24' E 013°04'1019.4
2018-Jun-16 22:30N 45°30' E 013°15'1019.6
2018-Jun-16 22:00N 45°35' E 013°26'1019.3
2018-Jun-16 21:30N 45°39' E 013°39'4 7.7
2018-Jun-16 20:58N 45°39' E 013°45'0 0.0
2018-Jun-16 20:28N 45°39' E 013°45'0 0.0
2018-Jun-16 19:58N 45°39' E 013°45'0 0.0
2018-Jun-16 19:30N 45°39' E 013°45'0 0.0
2018-Jun-16 18:57N 45°39' E 013°45'0 0.0
2018-Jun-16 18:30N 45°39' E 013°45'0 0.0
2018-Jun-16 17:51N 45°39' E 013°45'0 0.0
2018-Jun-16 17:30N 45°39' E 013°45'0 0.0
2018-Jun-16 16:59N 45°39' E 013°45'0 0.0
2018-Jun-16 16:29N 45°39' E 013°45'0 0.0
2018-Jun-16 15:59N 45°39' E 013°45'0 0.0
2018-Jun-16 15:23N 45°39' E 013°45'0 0.0
2018-Jun-16 14:55N 45°39' E 013°45'0 0.0
2018-Jun-16 14:28N 45°39' E 013°45'0 0.0
2018-Jun-16 13:55N 45°39' E 013°45'0 0.0
2018-Jun-16 13:25N 45°39' E 013°45'0 0.0
2018-Jun-16 12:58N 45°39' E 013°45'0 0.0
2018-Jun-16 12:27N 45°39' E 013°45'0 0.0
2018-Jun-16 11:57N 45°39' E 013°45'0 0.0
2018-Jun-16 11:30N 45°39' E 013°45'0 0.0
2018-Jun-16 11:00N 45°39' E 013°45'0 0.0
2018-Jun-16 10:30N 45°39' E 013°45'2 4.5
2018-Jun-16 10:00N 45°39' E 013°42'918.2
2018-Jun-16 09:30N 45°34' E 013°31'1019.5
2018-Jun-16 09:01N 45°28' E 013°20'1019.0
2018-Jun-16 08:30N 45°20' E 013°13'1020.3
2018-Jun-16 08:00N 45°10' E 013°17'1020.7
2018-Jun-16 07:31N 45°01' E 013°22'1020.5
2018-Jun-16 07:00N 44°51' E 013°29'1120.5
2018-Jun-16 06:30N 44°43' E 013°37'1020.1
2018-Jun-16 06:00N 44°34' E 013°44'1020.1
2018-Jun-16 05:30N 44°26' E 013°52'64019.3
2018-Jun-14 20:23N 36°25' E 023°06'2218.4
2018-Jun-14 19:12N 36°41' E 023°24'3019.5
2018-Jun-14 17:40N 37°06' E 023°45'319.5
2018-Jun-14 17:31N 37°08' E 023°47'1019.4
2018-Jun-14 17:01N 37°16' E 023°54'1019.7
2018-Jun-14 16:31N 37°24' E 024°01'15819.6
2018-Jun-14 08:27N 39°40' E 025°44'919.9
2018-Jun-14 08:00N 39°48' E 025°49'1020.8
2018-Jun-14 07:30N 39°57' E 025°56'4714.3
2018-Jun-14 04:12N 40°26' E 026°44'4420.6
2018-Jun-14 02:05N 40°45' E 027°36'220.7
2018-Jun-14 02:00N 40°46' E 027°38'1020.8
2018-Jun-14 01:30N 40°47' E 027°52'1120.7
2018-Jun-14 01:00N 40°49' E 028°05'1020.0
2018-Jun-14 00:30N 40°51' E 028°18'1019.9
2018-Jun-14 00:00N 40°52' E 028°31'1119.2
2018-Jun-13 23:27N 40°52' E 028°45'919.0
2018-Jun-13 23:00N 40°49' E 028°56'1019.1
2018-Jun-13 22:30N 40°49' E 029°09'110 2.6
2018-Jun-12 04:50N 40°26' E 026°47'60112.3
2018-Jun-10 04:07N 44°01' E 014°09'319.4
2018-Jun-10 03:57N 44°04' E 014°07'819.3
2018-Jun-10 03:31N 44°10' E 013°60'1019.4
2018-Jun-10 03:01N 44°19' E 013°52'1019.2
2018-Jun-10 02:31N 44°27' E 013°45'1019.1
2018-Jun-10 02:00N 44°35' E 013°38'1019.3
2018-Jun-10 01:31N 44°43' E 013°30'1019.5
2018-Jun-10 01:00N 44°51' E 013°23'1019.4
2018-Jun-10 00:31N 44°59' E 013°15'1019.6
2018-Jun-10 00:00N 45°07' E 013°07'919.2
2018-Jun-09 23:31N 45°16' E 013°02'816.3
2018-Jun-09 23:01N 45°24' E 013°04'1019.5
2018-Jun-09 22:31N 45°30' E 013°15'1019.3
2018-Jun-09 22:01N 45°35' E 013°26'1019.2
2018-Jun-09 21:31N 45°39' E 013°39'4 8.7
2018-Jun-09 21:00N 45°39' E 013°45'0 0.0
2018-Jun-09 20:25N 45°39' E 013°45'0 0.0
2018-Jun-09 19:55N 45°39' E 013°45'0 0.0
2018-Jun-09 19:28N 45°39' E 013°45'0 0.0
2018-Jun-09 18:57N 45°39' E 013°45'0 0.0
2018-Jun-09 18:15N 45°39' E 013°45'0 0.0
2018-Jun-09 18:00N 45°39' E 013°45'0 0.0
2018-Jun-09 17:27N 45°39' E 013°45'0 0.0
2018-Jun-09 17:00N 45°39' E 013°45'0 0.0
2018-Jun-09 16:23N 45°39' E 013°45'0 0.0
2018-Jun-09 15:59N 45°39' E 013°45'0 0.0
2018-Jun-09 14:59N 45°39' E 013°45'0 0.0
2018-Jun-09 14:29N 45°39' E 013°45'0 0.0
2018-Jun-09 13:59N 45°39' E 013°45'0 0.0
2018-Jun-09 13:29N 45°39' E 013°45'0 0.0
2018-Jun-09 12:57N 45°39' E 013°45'0 0.0
2018-Jun-09 12:25N 45°39' E 013°45'0 0.0
2018-Jun-09 11:52N 45°39' E 013°45'0 0.0
2018-Jun-09 11:25N 45°39' E 013°45'0 0.0
2018-Jun-09 10:55N 45°39' E 013°45'0 0.0
2018-Jun-09 10:30N 45°39' E 013°45'0 0.0
2018-Jun-09 10:00N 45°39' E 013°45'0 0.0
2018-Jun-09 09:30N 45°39' E 013°45'0 0.0
2018-Jun-09 09:00N 45°39' E 013°45'1 2.0
2018-Jun-09 08:30N 45°39' E 013°44'815.8
2018-Jun-09 08:00N 45°36' E 013°33'1019.2
2018-Jun-09 07:30N 45°30' E 013°23'919.0
2018-Jun-09 07:00N 45°23' E 013°14'1019.4
2018-Jun-09 06:30N 45°13' E 013°16'1019.9
2018-Jun-09 06:00N 45°04' E 013°21'1019.9
2018-Jun-09 05:30N 44°55' E 013°26'1019.8
2018-Jun-09 05:00N 44°46' E 013°34'1019.7
2018-Jun-09 04:30N 44°38' E 013°41'1019.5
2018-Jun-09 04:00N 44°30' E 013°49'1019.3
2018-Jun-09 03:30N 44°22' E 013°56'63519.2
2018-Jun-07 18:30N 36°25' E 023°06'1018.2
2018-Jun-07 17:57N 36°30' E 023°16'1819.8
2018-Jun-07 17:02N 36°46' E 023°28'119.8
2018-Jun-07 17:00N 36°46' E 023°28'1019.9
2018-Jun-07 16:30N 36°54' E 023°35'1019.8
2018-Jun-07 16:00N 37°03' E 023°42'1019.9
2018-Jun-07 15:30N 37°11' E 023°49'1020.3
2018-Jun-07 15:00N 37°19' E 023°56'1120.3
2018-Jun-07 14:28N 37°28' E 024°04'  

Dump ship's entire track history